sensor_id;sensor_type;location;lat;lon;timestamp;temperature;humidity
9209;DHT22;4639;48.862;9.188;2022-08-20T00:00:50;21.00;99.90
9209;DHT22;4639;48.862;9.188;2022-08-20T00:03:25;20.90;99.90
9209;DHT22;4639;48.862;9.188;2022-08-20T00:05:57;20.80;99.90
9209;DHT22;4639;48.862;9.188;2022-08-20T00:08:24;20.70;99.90
9209;DHT22;4639;48.862;9.188;2022-08-20T00:10:52;20.70;99.90
9209;DHT22;4639;48.862;9.188;2022-08-20T00:13:35;20.70;99.90
9209;DHT22;4639;48.862;9.188;2022-08-20T00:16:02;20.80;99.90
9209;DHT22;4639;48.862;9.188;2022-08-20T00:18:28;20.70;99.90
9209;DHT22;4639;48.862;9.188;2022-08-20T00:20:54;20.70;99.90
9209;DHT22;4639;48.862;9.188;2022-08-20T00:23:22;20.60;99.90
9209;DHT22;4639;48.862;9.188;2022-08-20T00:25:48;20.60;99.90
9209;DHT22;4639;48.862;9.188;2022-08-20T00:28:14;20.60;99.90
9209;DHT22;4639;48.862;9.188;2022-08-20T00:30:42;20.50;99.90
9209;DHT22;4639;48.862;9.188;2022-08-20T00:33:12;20.40;99.90
9209;DHT22;4639;48.862;9.188;2022-08-20T00:35:42;20.40;99.90
9209;DHT22;4639;48.862;9.188;2022-08-20T00:38:08;20.40;99.90
9209;DHT22;4639;48.862;9.188;2022-08-20T00:41:00;20.30;99.90
9209;DHT22;4639;48.862;9.188;2022-08-20T00:43:31;20.30;99.90
9209;DHT22;4639;48.862;9.188;2022-08-20T00:45:59;20.30;99.90
9209;DHT22;4639;48.862;9.188;2022-08-20T00:48:27;20.30;99.90
9209;DHT22;4639;48.862;9.188;2022-08-20T00:50:58;20.20;99.90
9209;DHT22;4639;48.862;9.188;2022-08-20T00:53:26;20.20;99.90
9209;DHT22;4639;48.862;9.188;2022-08-20T00:55:53;20.20;99.90
9209;DHT22;4639;48.862;9.188;2022-08-20T00:58:19;20.20;99.90
9209;DHT22;4639;48.862;9.188;2022-08-20T01:00:46;20.20;99.90
9209;DHT22;4639;48.862;9.188;2022-08-20T01:03:16;20.20;99.90
9209;DHT22;4639;48.862;9.188;2022-08-20T01:05:45;20.20;99.90
9209;DHT22;4639;48.862;9.188;2022-08-20T01:08:12;20.30;99.90
9209;DHT22;4639;48.862;9.188;2022-08-20T01:10:41;20.30;99.90
9209;DHT22;4639;48.862;9.188;2022-08-20T01:13:12;20.40;99.90
9209;DHT22;4639;48.862;9.188;2022-08-20T01:15:40;20.50;99.90
9209;DHT22;4639;48.862;9.188;2022-08-20T01:18:14;20.50;99.90
9209;DHT22;4639;48.862;9.188;2022-08-20T01:20:44;20.50;99.90
9209;DHT22;4639;48.862;9.188;2022-08-20T01:23:17;20.60;99.90
9209;DHT22;4639;48.862;9.188;2022-08-20T01:26:20;20.50;99.90
9209;DHT22;4639;48.862;9.188;2022-08-20T01:28:51;20.40;99.90
9209;DHT22;4639;48.862;9.188;2022-08-20T01:31:23;20.30;99.90
9209;DHT22;4639;48.862;9.188;2022-08-20T01:33:50;20.30;99.90
9209;DHT22;4639;48.862;9.188;2022-08-20T01:36:20;20.20;99.90
9209;DHT22;4639;48.862;9.188;2022-08-20T01:38:46;20.20;99.90
9209;DHT22;4639;48.862;9.188;2022-08-20T01:43:40;20.10;99.90
9209;DHT22;4639;48.862;9.188;2022-08-20T01:46:08;20.10;99.90
9209;DHT22;4639;48.862;9.188;2022-08-20T01:48:35;20.10;99.90
9209;DHT22;4639;48.862;9.188;2022-08-20T01:51:13;20.10;99.90
9209;DHT22;4639;48.862;9.188;2022-08-20T01:53:42;20.10;99.90
9209;DHT22;4639;48.862;9.188;2022-08-20T01:56:11;20.20;99.90
9209;DHT22;4639;48.862;9.188;2022-08-20T01:58:42;20.30;99.90
9209;DHT22;4639;48.862;9.188;2022-08-20T02:01:19;20.40;99.90
9209;DHT22;4639;48.862;9.188;2022-08-20T02:03:45;20.40;99.90
9209;DHT22;4639;48.862;9.188;2022-08-20T02:06:11;20.40;99.90
9209;DHT22;4639;48.862;9.188;2022-08-20T02:08:36;20.40;99.90
9209;DHT22;4639;48.862;9.188;2022-08-20T02:11:02;20.30;99.90
9209;DHT22;4639;48.862;9.188;2022-08-20T02:13:27;20.40;99.90
9209;DHT22;4639;48.862;9.188;2022-08-20T02:15:53;20.40;99.90
9209;DHT22;4639;48.862;9.188;2022-08-20T02:18:18;20.30;99.90
9209;DHT22;4639;48.862;9.188;2022-08-20T02:20:45;20.30;99.90
9209;DHT22;4639;48.862;9.188;2022-08-20T02:23:12;20.40;99.90
9209;DHT22;4639;48.862;9.188;2022-08-20T02:25:41;20.40;99.90
9209;DHT22;4639;48.862;9.188;2022-08-20T02:28:13;20.40;99.90
9209;DHT22;4639;48.862;9.188;2022-08-20T02:30:42;20.50;99.90
9209;DHT22;4639;48.862;9.188;2022-08-20T02:33:12;20.60;99.90
9209;DHT22;4639;48.862;9.188;2022-08-20T02:35:39;20.60;99.90
9209;DHT22;4639;48.862;9.188;2022-08-20T02:38:05;20.60;99.90
9209;DHT22;4639;48.862;9.188;2022-08-20T02:40:32;20.60;99.90
9209;DHT22;4639;48.862;9.188;2022-08-20T02:42:58;20.50;99.90
9209;DHT22;4639;48.862;9.188;2022-08-20T02:45:24;20.60;99.90
9209;DHT22;4639;48.862;9.188;2022-08-20T02:47:50;20.50;99.90
9209;DHT22;4639;48.862;9.188;2022-08-20T02:50:22;20.50;99.90
9209;DHT22;4639;48.862;9.188;2022-08-20T02:52:48;20.40;99.90
9209;DHT22;4639;48.862;9.188;2022-08-20T02:55:14;20.40;99.90
9209;DHT22;4639;48.862;9.188;2022-08-20T02:57:40;20.30;99.90
9209;DHT22;4639;48.862;9.188;2022-08-20T03:00:19;20.20;99.90
9209;DHT22;4639;48.862;9.188;2022-08-20T03:02:45;20.10;99.90
9209;DHT22;4639;48.862;9.188;2022-08-20T03:05:12;20.00;99.90
9209;DHT22;4639;48.862;9.188;2022-08-20T03:07:46;20.10;99.90
9209;DHT22;4639;48.862;9.188;2022-08-20T03:10:12;20.10;99.90
9209;DHT22;4639;48.862;9.188;2022-08-20T03:12:40;20.00;99.90
9209;DHT22;4639;48.862;9.188;2022-08-20T03:15:07;20.00;99.90
9209;DHT22;4639;48.862;9.188;2022-08-20T03:17:34;20.00;99.90
9209;DHT22;4639;48.862;9.188;2022-08-20T03:19:59;20.00;99.90
9209;DHT22;4639;48.862;9.188;2022-08-20T03:22:25;20.00;99.90
9209;DHT22;4639;48.862;9.188;2022-08-20T03:24:51;20.10;99.90
9209;DHT22;4639;48.862;9.188;2022-08-20T03:27:16;20.20;99.90
9209;DHT22;4639;48.862;9.188;2022-08-20T03:29:42;20.20;99.90
9209;DHT22;4639;48.862;9.188;2022-08-20T03:32:07;20.20;99.90
9209;DHT22;4639;48.862;9.188;2022-08-20T03:34:33;20.10;99.90
9209;DHT22;4639;48.862;9.188;2022-08-20T03:36:59;20.10;99.90
9209;DHT22;4639;48.862;9.188;2022-08-20T03:39:24;20.00;99.90
9209;DHT22;4639;48.862;9.188;2022-08-20T03:41:50;19.90;99.90
9209;DHT22;4639;48.862;9.188;2022-08-20T03:44:16;19.90;99.90
9209;DHT22;4639;48.862;9.188;2022-08-20T03:46:41;20.00;99.90
9209;DHT22;4639;48.862;9.188;2022-08-20T03:49:07;20.00;99.90
9209;DHT22;4639;48.862;9.188;2022-08-20T03:51:33;20.00;99.90
9209;DHT22;4639;48.862;9.188;2022-08-20T03:53:58;19.90;99.90
9209;DHT22;4639;48.862;9.188;2022-08-20T03:56:24;20.00;99.90
9209;DHT22;4639;48.862;9.188;2022-08-20T03:58:50;20.00;99.90
9209;DHT22;4639;48.862;9.188;2022-08-20T04:01:16;20.00;99.90
9209;DHT22;4639;48.862;9.188;2022-08-20T04:03:42;20.00;99.90
9209;DHT22;4639;48.862;9.188;2022-08-20T04:06:09;20.00;99.90
9209;DHT22;4639;48.862;9.188;2022-08-20T04:08:34;20.10;99.90
9209;DHT22;4639;48.862;9.188;2022-08-20T04:11:00;20.10;99.90
9209;DHT22;4639;48.862;9.188;2022-08-20T04:13:27;20.10;99.90
9209;DHT22;4639;48.862;9.188;2022-08-20T04:15:53;20.10;99.90
9209;DHT22;4639;48.862;9.188;2022-08-20T04:18:21;20.20;99.90
9209;DHT22;4639;48.862;9.188;2022-08-20T04:20:48;20.10;99.90
9209;DHT22;4639;48.862;9.188;2022-08-20T04:23:14;20.10;99.90
9209;DHT22;4639;48.862;9.188;2022-08-20T04:25:41;20.10;99.90
9209;DHT22;4639;48.862;9.188;2022-08-20T04:28:12;20.10;99.90
9209;DHT22;4639;48.862;9.188;2022-08-20T04:30:38;20.10;99.90
9209;DHT22;4639;48.862;9.188;2022-08-20T04:33:03;20.10;99.90
9209;DHT22;4639;48.862;9.188;2022-08-20T04:35:30;20.10;99.90
9209;DHT22;4639;48.862;9.188;2022-08-20T04:38:07;20.10;99.90
9209;DHT22;4639;48.862;9.188;2022-08-20T04:40:34;20.10;99.90
9209;DHT22;4639;48.862;9.188;2022-08-20T04:43:21;20.10;99.90
9209;DHT22;4639;48.862;9.188;2022-08-20T04:45:49;20.10;99.90
9209;DHT22;4639;48.862;9.188;2022-08-20T04:48:19;20.20;99.90
9209;DHT22;4639;48.862;9.188;2022-08-20T04:50:45;20.10;99.90
9209;DHT22;4639;48.862;9.188;2022-08-20T04:53:15;20.20;99.90
9209;DHT22;4639;48.862;9.188;2022-08-20T04:55:43;20.10;99.90
9209;DHT22;4639;48.862;9.188;2022-08-20T04:58:12;20.20;99.90
9209;DHT22;4639;48.862;9.188;2022-08-20T05:00:38;20.20;99.90
9209;DHT22;4639;48.862;9.188;2022-08-20T05:03:04;20.20;99.90
9209;DHT22;4639;48.862;9.188;2022-08-20T05:05:31;20.20;99.90
9209;DHT22;4639;48.862;9.188;2022-08-20T05:07:59;20.20;99.90
9209;DHT22;4639;48.862;9.188;2022-08-20T05:10:25;20.20;99.90
9209;DHT22;4639;48.862;9.188;2022-08-20T05:12:51;20.20;99.90
9209;DHT22;4639;48.862;9.188;2022-08-20T05:15:17;20.20;99.90
9209;DHT22;4639;48.862;9.188;2022-08-20T05:17:43;20.30;99.90
9209;DHT22;4639;48.862;9.188;2022-08-20T05:20:15;20.30;99.90
9209;DHT22;4639;48.862;9.188;2022-08-20T05:22:42;20.30;99.90
9209;DHT22;4639;48.862;9.188;2022-08-20T05:25:07;20.30;99.90
9209;DHT22;4639;48.862;9.188;2022-08-20T05:27:34;20.30;99.90
9209;DHT22;4639;48.862;9.188;2022-08-20T05:30:02;20.30;99.90
9209;DHT22;4639;48.862;9.188;2022-08-20T05:32:31;20.40;99.90
9209;DHT22;4639;48.862;9.188;2022-08-20T05:34:57;20.40;99.90
9209;DHT22;4639;48.862;9.188;2022-08-20T05:37:23;20.40;99.90
9209;DHT22;4639;48.862;9.188;2022-08-20T05:39:49;20.40;99.90
9209;DHT22;4639;48.862;9.188;2022-08-20T05:42:14;20.40;99.90
9209;DHT22;4639;48.862;9.188;2022-08-20T05:44:40;20.40;99.90
9209;DHT22;4639;48.862;9.188;2022-08-20T05:47:06;20.40;99.90
9209;DHT22;4639;48.862;9.188;2022-08-20T05:49:32;20.40;99.90
9209;DHT22;4639;48.862;9.188;2022-08-20T05:51:58;20.40;99.90
9209;DHT22;4639;48.862;9.188;2022-08-20T05:54:24;20.40;99.90
9209;DHT22;4639;48.862;9.188;2022-08-20T05:56:50;20.50;99.90
9209;DHT22;4639;48.862;9.188;2022-08-20T05:59:15;20.60;99.90
9209;DHT22;4639;48.862;9.188;2022-08-20T06:01:42;20.40;99.90
9209;DHT22;4639;48.862;9.188;2022-08-20T06:04:09;20.50;99.90
9209;DHT22;4639;48.862;9.188;2022-08-20T06:06:54;20.50;99.90
9209;DHT22;4639;48.862;9.188;2022-08-20T06:09:21;20.50;99.90
9209;DHT22;4639;48.862;9.188;2022-08-20T06:11:47;20.70;99.90
9209;DHT22;4639;48.862;9.188;2022-08-20T06:14:13;20.70;99.90
9209;DHT22;4639;48.862;9.188;2022-08-20T06:16:41;20.70;99.90
9209;DHT22;4639;48.862;9.188;2022-08-20T06:19:06;20.80;99.90
9209;DHT22;4639;48.862;9.188;2022-08-20T06:21:32;20.80;99.90
9209;DHT22;4639;48.862;9.188;2022-08-20T06:23:58;20.80;99.90
9209;DHT22;4639;48.862;9.188;2022-08-20T06:26:24;20.90;99.90
9209;DHT22;4639;48.862;9.188;2022-08-20T06:28:50;20.90;99.90
9209;DHT22;4639;48.862;9.188;2022-08-20T06:31:15;21.00;99.90
9209;DHT22;4639;48.862;9.188;2022-08-20T06:33:41;20.80;99.90
9209;DHT22;4639;48.862;9.188;2022-08-20T06:36:07;21.00;99.90
9209;DHT22;4639;48.862;9.188;2022-08-20T06:38:33;20.90;99.90
9209;DHT22;4639;48.862;9.188;2022-08-20T06:40:58;20.90;99.90
9209;DHT22;4639;48.862;9.188;2022-08-20T06:43:24;21.00;99.90
9209;DHT22;4639;48.862;9.188;2022-08-20T06:45:50;21.10;99.90
9209;DHT22;4639;48.862;9.188;2022-08-20T06:48:16;21.10;99.90
9209;DHT22;4639;48.862;9.188;2022-08-20T06:50:44;21.10;99.90
9209;DHT22;4639;48.862;9.188;2022-08-20T06:53:14;21.10;99.90
9209;DHT22;4639;48.862;9.188;2022-08-20T06:55:42;21.20;99.90
9209;DHT22;4639;48.862;9.188;2022-08-20T06:58:11;21.20;99.90
9209;DHT22;4639;48.862;9.188;2022-08-20T07:00:39;21.20;99.90
9209;DHT22;4639;48.862;9.188;2022-08-20T07:03:06;21.20;99.90
9209;DHT22;4639;48.862;9.188;2022-08-20T07:05:35;21.10;99.90
9209;DHT22;4639;48.862;9.188;2022-08-20T07:08:02;21.20;99.90
9209;DHT22;4639;48.862;9.188;2022-08-20T07:10:28;21.20;99.90
9209;DHT22;4639;48.862;9.188;2022-08-20T07:12:55;21.20;99.90
9209;DHT22;4639;48.862;9.188;2022-08-20T07:15:22;21.20;99.90
9209;DHT22;4639;48.862;9.188;2022-08-20T07:17:49;21.10;99.90
9209;DHT22;4639;48.862;9.188;2022-08-20T07:20:16;21.30;99.90
9209;DHT22;4639;48.862;9.188;2022-08-20T07:22:42;21.30;99.90
9209;DHT22;4639;48.862;9.188;2022-08-20T07:25:10;21.30;99.90
9209;DHT22;4639;48.862;9.188;2022-08-20T07:27:37;21.50;99.90
9209;DHT22;4639;48.862;9.188;2022-08-20T07:30:04;21.50;99.90
9209;DHT22;4639;48.862;9.188;2022-08-20T07:32:49;21.60;99.90
9209;DHT22;4639;48.862;9.188;2022-08-20T07:35:16;21.70;99.90
9209;DHT22;4639;48.862;9.188;2022-08-20T07:37:45;21.60;99.90
9209;DHT22;4639;48.862;9.188;2022-08-20T07:40:23;21.70;99.90
9209;DHT22;4639;48.862;9.188;2022-08-20T07:42:49;21.60;99.90
9209;DHT22;4639;48.862;9.188;2022-08-20T07:45:16;21.70;99.90
9209;DHT22;4639;48.862;9.188;2022-08-20T07:47:44;21.70;99.90
9209;DHT22;4639;48.862;9.188;2022-08-20T07:50:12;21.80;99.90
9209;DHT22;4639;48.862;9.188;2022-08-20T07:52:38;21.70;99.90
9209;DHT22;4639;48.862;9.188;2022-08-20T07:55:05;21.90;99.90
9209;DHT22;4639;48.862;9.188;2022-08-20T07:57:31;22.00;99.90
9209;DHT22;4639;48.862;9.188;2022-08-20T07:59:57;22.10;99.90
9209;DHT22;4639;48.862;9.188;2022-08-20T08:02:25;22.30;99.90
9209;DHT22;4639;48.862;9.188;2022-08-20T08:04:51;22.40;99.90
9209;DHT22;4639;48.862;9.188;2022-08-20T08:07:17;22.50;99.90
9209;DHT22;4639;48.862;9.188;2022-08-20T08:09:43;22.70;99.90
9209;DHT22;4639;48.862;9.188;2022-08-20T08:12:11;22.90;99.90
9209;DHT22;4639;48.862;9.188;2022-08-20T08:14:39;22.90;99.90
9209;DHT22;4639;48.862;9.188;2022-08-20T08:17:06;23.00;99.90
9209;DHT22;4639;48.862;9.188;2022-08-20T08:19:46;23.00;99.90
9209;DHT22;4639;48.862;9.188;2022-08-20T08:22:16;23.20;99.90
9209;DHT22;4639;48.862;9.188;2022-08-20T08:24:44;23.30;99.90
9209;DHT22;4639;48.862;9.188;2022-08-20T08:27:14;23.30;99.90
9209;DHT22;4639;48.862;9.188;2022-08-20T08:29:46;23.40;99.90
9209;DHT22;4639;48.862;9.188;2022-08-20T08:32:14;23.30;99.90
9209;DHT22;4639;48.862;9.188;2022-08-20T08:34:39;23.20;99.90
9209;DHT22;4639;48.862;9.188;2022-08-20T08:37:05;23.20;99.90
9209;DHT22;4639;48.862;9.188;2022-08-20T08:39:31;23.10;99.90
9209;DHT22;4639;48.862;9.188;2022-08-20T08:41:59;23.10;99.90
9209;DHT22;4639;48.862;9.188;2022-08-20T08:44:33;23.10;99.90
9209;DHT22;4639;48.862;9.188;2022-08-20T08:47:12;23.10;99.90
9209;DHT22;4639;48.862;9.188;2022-08-20T08:49:43;23.20;99.90
9209;DHT22;4639;48.862;9.188;2022-08-20T08:54:47;23.20;99.90
9209;DHT22;4639;48.862;9.188;2022-08-20T08:57:14;23.20;99.90
9209;DHT22;4639;48.862;9.188;2022-08-20T08:59:41;23.20;99.90
9209;DHT22;4639;48.862;9.188;2022-08-20T09:02:21;23.30;99.90
9209;DHT22;4639;48.862;9.188;2022-08-20T09:04:47;23.60;99.90
9209;DHT22;4639;48.862;9.188;2022-08-20T09:07:15;23.80;99.90
9209;DHT22;4639;48.862;9.188;2022-08-20T09:09:43;23.90;99.90
9209;DHT22;4639;48.862;9.188;2022-08-20T09:12:23;24.00;99.90
9209;DHT22;4639;48.862;9.188;2022-08-20T09:14:50;24.20;99.90
9209;DHT22;4639;48.862;9.188;2022-08-20T09:17:17;24.30;99.90
9209;DHT22;4639;48.862;9.188;2022-08-20T09:19:43;24.60;99.90
9209;DHT22;4639;48.862;9.188;2022-08-20T09:22:12;24.80;99.90
9209;DHT22;4639;48.862;9.188;2022-08-20T09:24:39;24.70;99.90
9209;DHT22;4639;48.862;9.188;2022-08-20T09:27:06;24.70;99.90
9209;DHT22;4639;48.862;9.188;2022-08-20T09:29:32;24.70;99.90
9209;DHT22;4639;48.862;9.188;2022-08-20T09:32:11;24.70;99.90
9209;DHT22;4639;48.862;9.188;2022-08-20T09:34:45;24.70;99.90
9209;DHT22;4639;48.862;9.188;2022-08-20T09:37:12;24.60;99.90
9209;DHT22;4639;48.862;9.188;2022-08-20T09:39:38;24.50;99.90
9209;DHT22;4639;48.862;9.188;2022-08-20T09:42:11;24.20;99.90
9209;DHT22;4639;48.862;9.188;2022-08-20T09:44:38;24.10;99.90
9209;DHT22;4639;48.862;9.188;2022-08-20T09:47:04;24.10;99.90
9209;DHT22;4639;48.862;9.188;2022-08-20T09:49:30;23.80;99.90
9209;DHT22;4639;48.862;9.188;2022-08-20T09:51:56;23.90;99.90
9209;DHT22;4639;48.862;9.188;2022-08-20T09:54:24;24.00;99.90
9209;DHT22;4639;48.862;9.188;2022-08-20T09:56:57;24.30;99.90
9209;DHT22;4639;48.862;9.188;2022-08-20T09:59:23;24.40;99.90
9209;DHT22;4639;48.862;9.188;2022-08-20T10:01:49;24.50;99.90
9209;DHT22;4639;48.862;9.188;2022-08-20T10:04:15;24.40;99.90
9209;DHT22;4639;48.862;9.188;2022-08-20T10:06:41;24.40;99.90
9209;DHT22;4639;48.862;9.188;2022-08-20T10:09:06;24.50;99.90
9209;DHT22;4639;48.862;9.188;2022-08-20T10:11:32;24.70;99.90
9209;DHT22;4639;48.862;9.188;2022-08-20T10:13:58;24.90;99.90
9209;DHT22;4639;48.862;9.188;2022-08-20T10:16:23;25.10;99.90
9209;DHT22;4639;48.862;9.188;2022-08-20T10:18:49;25.30;99.90
9209;DHT22;4639;48.862;9.188;2022-08-20T10:21:15;25.50;99.90
9209;DHT22;4639;48.862;9.188;2022-08-20T10:23:41;25.30;99.90
9209;DHT22;4639;48.862;9.188;2022-08-20T10:26:09;24.90;99.90
9209;DHT22;4639;48.862;9.188;2022-08-20T10:28:35;24.60;99.90
9209;DHT22;4639;48.862;9.188;2022-08-20T10:31:00;24.40;99.90
9209;DHT22;4639;48.862;9.188;2022-08-20T10:33:26;24.10;99.90
9209;DHT22;4639;48.862;9.188;2022-08-20T10:35:52;23.70;99.90
9209;DHT22;4639;48.862;9.188;2022-08-20T10:38:17;23.20;99.90
9209;DHT22;4639;48.862;9.188;2022-08-20T10:40:43;23.30;99.90
9209;DHT22;4639;48.862;9.188;2022-08-20T10:43:09;23.40;99.90
9209;DHT22;4639;48.862;9.188;2022-08-20T10:45:34;23.80;99.90
9209;DHT22;4639;48.862;9.188;2022-08-20T10:48:00;24.50;99.90
9209;DHT22;4639;48.862;9.188;2022-08-20T10:50:26;25.10;99.90
9209;DHT22;4639;48.862;9.188;2022-08-20T10:52:52;25.40;99.90
9209;DHT22;4639;48.862;9.188;2022-08-20T10:55:18;25.80;99.90
9209;DHT22;4639;48.862;9.188;2022-08-20T10:57:44;26.30;99.90
9209;DHT22;4639;48.862;9.188;2022-08-20T11:00:12;26.50;99.90
9209;DHT22;4639;48.862;9.188;2022-08-20T11:02:38;26.60;99.90
9209;DHT22;4639;48.862;9.188;2022-08-20T11:05:05;26.90;99.90
9209;DHT22;4639;48.862;9.188;2022-08-20T11:07:36;27.00;99.90
9209;DHT22;4639;48.862;9.188;2022-08-20T11:10:04;27.10;99.90
9209;DHT22;4639;48.862;9.188;2022-08-20T11:12:30;27.10;99.90
9209;DHT22;4639;48.862;9.188;2022-08-20T11:14:55;27.30;99.90
9209;DHT22;4639;48.862;9.188;2022-08-20T11:17:26;26.70;99.90
9209;DHT22;4639;48.862;9.188;2022-08-20T11:19:53;26.00;99.90
9209;DHT22;4639;48.862;9.188;2022-08-20T11:22:19;25.80;99.90
9209;DHT22;4639;48.862;9.188;2022-08-20T11:24:44;25.50;99.90
9209;DHT22;4639;48.862;9.188;2022-08-20T11:27:16;25.20;99.90
9209;DHT22;4639;48.862;9.188;2022-08-20T11:29:42;25.10;99.90
9209;DHT22;4639;48.862;9.188;2022-08-20T11:32:07;25.00;99.90
9209;DHT22;4639;48.862;9.188;2022-08-20T11:34:33;24.90;99.90
9209;DHT22;4639;48.862;9.188;2022-08-20T11:36:59;24.50;99.90
9209;DHT22;4639;48.862;9.188;2022-08-20T11:39:25;24.50;99.90
9209;DHT22;4639;48.862;9.188;2022-08-20T11:41:51;24.40;99.90
9209;DHT22;4639;48.862;9.188;2022-08-20T11:44:16;24.50;99.90
9209;DHT22;4639;48.862;9.188;2022-08-20T11:46:42;24.50;99.90
9209;DHT22;4639;48.862;9.188;2022-08-20T11:49:08;24.60;99.90
9209;DHT22;4639;48.862;9.188;2022-08-20T11:51:33;24.60;99.90
9209;DHT22;4639;48.862;9.188;2022-08-20T11:53:59;24.40;99.90
9209;DHT22;4639;48.862;9.188;2022-08-20T11:56:25;24.60;99.90
9209;DHT22;4639;48.862;9.188;2022-08-20T11:58:50;24.80;99.90
9209;DHT22;4639;48.862;9.188;2022-08-20T12:01:16;25.10;99.90
9209;DHT22;4639;48.862;9.188;2022-08-20T12:03:42;25.20;99.90
9209;DHT22;4639;48.862;9.188;2022-08-20T12:06:07;25.10;99.90
9209;DHT22;4639;48.862;9.188;2022-08-20T12:08:33;25.30;99.90
9209;DHT22;4639;48.862;9.188;2022-08-20T12:11:00;25.30;99.90
9209;DHT22;4639;48.862;9.188;2022-08-20T12:13:28;25.40;99.90
9209;DHT22;4639;48.862;9.188;2022-08-20T12:15:54;25.50;99.90
9209;DHT22;4639;48.862;9.188;2022-08-20T12:18:20;25.40;99.90
9209;DHT22;4639;48.862;9.188;2022-08-20T12:20:46;25.30;99.90
9209;DHT22;4639;48.862;9.188;2022-08-20T12:23:12;25.30;99.90
9209;DHT22;4639;48.862;9.188;2022-08-20T12:25:38;25.20;99.90
9209;DHT22;4639;48.862;9.188;2022-08-20T12:28:04;25.20;99.90
9209;DHT22;4639;48.862;9.188;2022-08-20T12:30:30;25.20;99.90
9209;DHT22;4639;48.862;9.188;2022-08-20T12:32:56;25.10;99.90
9209;DHT22;4639;48.862;9.188;2022-08-20T12:35:23;24.90;99.90
9209;DHT22;4639;48.862;9.188;2022-08-20T12:37:49;24.90;99.90
9209;DHT22;4639;48.862;9.188;2022-08-20T12:40:18;24.80;99.90
9209;DHT22;4639;48.862;9.188;2022-08-20T12:42:47;24.70;99.90
9209;DHT22;4639;48.862;9.188;2022-08-20T12:45:14;24.70;99.90
9209;DHT22;4639;48.862;9.188;2022-08-20T12:47:42;24.50;99.90
9209;DHT22;4639;48.862;9.188;2022-08-20T12:50:10;24.30;99.90
9209;DHT22;4639;48.862;9.188;2022-08-20T12:52:36;23.60;99.90
9209;DHT22;4639;48.862;9.188;2022-08-20T12:55:04;22.10;99.90
9209;DHT22;4639;48.862;9.188;2022-08-20T12:57:43;21.30;99.90
9209;DHT22;4639;48.862;9.188;2022-08-20T13:00:17;21.00;99.90
9209;DHT22;4639;48.862;9.188;2022-08-20T13:02:45;21.00;99.90
9209;DHT22;4639;48.862;9.188;2022-08-20T13:05:12;21.10;99.90
9209;DHT22;4639;48.862;9.188;2022-08-20T13:07:38;21.30;99.90
9209;DHT22;4639;48.862;9.188;2022-08-20T13:10:06;21.40;99.90
9209;DHT22;4639;48.862;9.188;2022-08-20T13:12:35;21.40;99.90
9209;DHT22;4639;48.862;9.188;2022-08-20T13:15:01;21.30;99.90
9209;DHT22;4639;48.862;9.188;2022-08-20T13:17:27;21.50;99.90
9209;DHT22;4639;48.862;9.188;2022-08-20T13:19:52;21.70;99.90
9209;DHT22;4639;48.862;9.188;2022-08-20T13:22:18;21.90;99.90
9209;DHT22;4639;48.862;9.188;2022-08-20T13:24:43;22.20;99.90
9209;DHT22;4639;48.862;9.188;2022-08-20T13:27:17;22.60;99.90
9209;DHT22;4639;48.862;9.188;2022-08-20T13:29:51;22.80;99.90
9209;DHT22;4639;48.862;9.188;2022-08-20T13:32:18;23.10;99.90
9209;DHT22;4639;48.862;9.188;2022-08-20T13:34:44;23.40;99.90
9209;DHT22;4639;48.862;9.188;2022-08-20T13:37:12;23.80;99.90
9209;DHT22;4639;48.862;9.188;2022-08-20T13:39:39;24.00;99.90
9209;DHT22;4639;48.862;9.188;2022-08-20T13:42:06;24.20;99.90
9209;DHT22;4639;48.862;9.188;2022-08-20T13:44:31;24.40;99.90
9209;DHT22;4639;48.862;9.188;2022-08-20T13:46:57;24.60;99.90
9209;DHT22;4639;48.862;9.188;2022-08-20T13:49:22;24.70;99.90
9209;DHT22;4639;48.862;9.188;2022-08-20T13:51:48;24.80;99.90
9209;DHT22;4639;48.862;9.188;2022-08-20T13:54:13;24.80;99.90
9209;DHT22;4639;48.862;9.188;2022-08-20T13:56:39;24.90;99.90
9209;DHT22;4639;48.862;9.188;2022-08-20T13:59:05;25.00;99.90
9209;DHT22;4639;48.862;9.188;2022-08-20T14:01:30;25.30;99.90
9209;DHT22;4639;48.862;9.188;2022-08-20T14:03:56;25.60;99.90
9209;DHT22;4639;48.862;9.188;2022-08-20T14:06:21;25.80;99.90
9209;DHT22;4639;48.862;9.188;2022-08-20T14:08:47;25.70;99.90
9209;DHT22;4639;48.862;9.188;2022-08-20T14:11:13;25.40;99.90
9209;DHT22;4639;48.862;9.188;2022-08-20T14:13:38;25.30;99.90
9209;DHT22;4639;48.862;9.188;2022-08-20T14:16:04;25.20;99.90
9209;DHT22;4639;48.862;9.188;2022-08-20T14:18:29;25.20;99.90
9209;DHT22;4639;48.862;9.188;2022-08-20T14:20:55;25.10;99.90
9209;DHT22;4639;48.862;9.188;2022-08-20T14:23:21;24.90;99.90
9209;DHT22;4639;48.862;9.188;2022-08-20T14:25:48;24.60;99.90
9209;DHT22;4639;48.862;9.188;2022-08-20T14:28:17;24.20;99.90
9209;DHT22;4639;48.862;9.188;2022-08-20T14:30:43;24.10;99.90
9209;DHT22;4639;48.862;9.188;2022-08-20T14:33:09;24.30;99.90
9209;DHT22;4639;48.862;9.188;2022-08-20T14:35:35;24.60;99.90
9209;DHT22;4639;48.862;9.188;2022-08-20T14:38:00;24.90;99.90
9209;DHT22;4639;48.862;9.188;2022-08-20T14:40:26;25.10;99.90
9209;DHT22;4639;48.862;9.188;2022-08-20T14:42:53;25.00;99.90
9209;DHT22;4639;48.862;9.188;2022-08-20T14:45:19;24.90;99.90
9209;DHT22;4639;48.862;9.188;2022-08-20T14:47:56;24.90;99.90
9209;DHT22;4639;48.862;9.188;2022-08-20T14:50:29;24.90;99.90
9209;DHT22;4639;48.862;9.188;2022-08-20T14:52:55;24.80;99.90
9209;DHT22;4639;48.862;9.188;2022-08-20T14:55:23;24.80;99.90
9209;DHT22;4639;48.862;9.188;2022-08-20T14:57:49;24.80;99.90
9209;DHT22;4639;48.862;9.188;2022-08-20T15:00:26;24.90;99.90
9209;DHT22;4639;48.862;9.188;2022-08-20T15:02:53;25.30;99.90
9209;DHT22;4639;48.862;9.188;2022-08-20T15:05:19;25.50;99.90
9209;DHT22;4639;48.862;9.188;2022-08-20T15:07:47;25.80;99.90
9209;DHT22;4639;48.862;9.188;2022-08-20T15:10:23;26.00;99.90
9209;DHT22;4639;48.862;9.188;2022-08-20T15:12:49;26.10;99.90
9209;DHT22;4639;48.862;9.188;2022-08-20T15:15:15;26.00;99.90
9209;DHT22;4639;48.862;9.188;2022-08-20T15:17:53;26.00;99.90
9209;DHT22;4639;48.862;9.188;2022-08-20T15:20:27;26.10;99.90
9209;DHT22;4639;48.862;9.188;2022-08-20T15:22:53;26.30;99.90
9209;DHT22;4639;48.862;9.188;2022-08-20T15:25:21;26.30;99.90
9209;DHT22;4639;48.862;9.188;2022-08-20T15:27:47;26.10;99.90
9209;DHT22;4639;48.862;9.188;2022-08-20T15:30:17;26.10;99.90
9209;DHT22;4639;48.862;9.188;2022-08-20T15:32:43;26.30;99.90
9209;DHT22;4639;48.862;9.188;2022-08-20T15:35:09;26.70;99.90
9209;DHT22;4639;48.862;9.188;2022-08-20T15:37:39;26.90;99.90
9209;DHT22;4639;48.862;9.188;2022-08-20T15:40:06;26.60;99.90
9209;DHT22;4639;48.862;9.188;2022-08-20T15:42:32;26.30;99.90
9209;DHT22;4639;48.862;9.188;2022-08-20T15:44:58;26.10;99.90
9209;DHT22;4639;48.862;9.188;2022-08-20T15:47:28;26.10;99.90
9209;DHT22;4639;48.862;9.188;2022-08-20T15:50:00;26.30;99.90
9209;DHT22;4639;48.862;9.188;2022-08-20T15:52:31;26.60;99.90
9209;DHT22;4639;48.862;9.188;2022-08-20T15:54:59;26.80;99.90
9209;DHT22;4639;48.862;9.188;2022-08-20T16:00:17;27.70;99.90
9209;DHT22;4639;48.862;9.188;2022-08-20T16:03:08;28.20;99.90
9209;DHT22;4639;48.862;9.188;2022-08-20T16:06:12;28.40;99.90
9209;DHT22;4639;48.862;9.188;2022-08-20T16:08:55;28.30;99.90
9209;DHT22;4639;48.862;9.188;2022-08-20T16:11:31;28.50;99.90
9209;DHT22;4639;48.862;9.188;2022-08-20T16:18:55;28.40;99.90